sensor_id;sensor_type;location;lat;lon;timestamp;pressure;altitude;pressure_sealevel;temperature;humidity
57250;BME280;43102;52.014;-0.680;2023-07-29T00:00:00;99654;;;20.20;67.00
57250;BME280;43102;52.014;-0.680;2023-07-29T00:01:00;99654;;;20.20;67.00
57250;BME280;43102;52.014;-0.680;2023-07-29T00:02:00;99654;;;20.20;67.00
57250;BME280;43102;52.014;-0.680;2023-07-29T00:03:00;99654;;;20.20;67.00
57250;BME280;43102;52.014;-0.680;2023-07-29T00:04:00;99654;;;20.20;67.00
57250;BME280;43102;52.014;-0.680;2023-07-29T00:05:00;99651;;;20.12;67.11
57250;BME280;43102;52.014;-0.680;2023-07-29T00:06:00;99651;;;20.12;67.11
57250;BME280;43102;52.014;-0.680;2023-07-29T00:07:00;99651;;;20.12;67.11
57250;BME280;43102;52.014;-0.680;2023-07-29T00:08:00;99651;;;20.12;67.11
57250;BME280;43102;52.014;-0.680;2023-07-29T00:09:00;99651;;;20.12;67.11
57250;BME280;43102;52.014;-0.680;2023-07-29T00:10:00;99640;;;20.09;67.81
57250;BME280;43102;52.014;-0.680;2023-07-29T00:11:00;99640;;;20.09;67.81
57250;BME280;43102;52.014;-0.680;2023-07-29T00:12:00;99640;;;20.09;67.81
57250;BME280;43102;52.014;-0.680;2023-07-29T00:13:00;99640;;;20.09;67.81
57250;BME280;43102;52.014;-0.680;2023-07-29T00:14:00;99640;;;20.09;67.81
57250;BME280;43102;52.014;-0.680;2023-07-29T00:15:00;99639;;;20.08;67.98
57250;BME280;43102;52.014;-0.680;2023-07-29T00:16:00;99639;;;20.08;67.98
57250;BME280;43102;52.014;-0.680;2023-07-29T00:17:00;99639;;;20.08;67.98
57250;BME280;43102;52.014;-0.680;2023-07-29T00:18:00;99639;;;20.08;67.98
57250;BME280;43102;52.014;-0.680;2023-07-29T00:19:00;99639;;;20.08;67.98
57250;BME280;43102;52.014;-0.680;2023-07-29T00:20:00;99634;;;20.05;67.98
57250;BME280;43102;52.014;-0.680;2023-07-29T00:21:00;99634;;;20.05;67.98
57250;BME280;43102;52.014;-0.680;2023-07-29T00:22:00;99634;;;20.05;67.98
57250;BME280;43102;52.014;-0.680;2023-07-29T00:23:00;99634;;;20.05;67.98
57250;BME280;43102;52.014;-0.680;2023-07-29T00:24:00;99634;;;20.05;67.98
57250;BME280;43102;52.014;-0.680;2023-07-29T00:25:00;99637;;;20.01;67.84
57250;BME280;43102;52.014;-0.680;2023-07-29T00:26:00;99637;;;20.01;67.84
57250;BME280;43102;52.014;-0.680;2023-07-29T00:27:00;99637;;;20.01;67.84
57250;BME280;43102;52.014;-0.680;2023-07-29T00:28:00;99637;;;20.01;67.84
57250;BME280;43102;52.014;-0.680;2023-07-29T00:29:00;99637;;;20.01;67.84
57250;BME280;43102;52.014;-0.680;2023-07-29T00:30:00;99632;;;19.96;67.82
57250;BME280;43102;52.014;-0.680;2023-07-29T00:31:01;99632;;;19.96;67.82
57250;BME280;43102;52.014;-0.680;2023-07-29T00:32:00;99632;;;19.96;67.82
57250;BME280;43102;52.014;-0.680;2023-07-29T00:33:00;99632;;;19.96;67.82
57250;BME280;43102;52.014;-0.680;2023-07-29T00:34:00;99632;;;19.96;67.82
57250;BME280;43102;52.014;-0.680;2023-07-29T00:35:00;99645;;;19.94;67.76
57250;BME280;43102;52.014;-0.680;2023-07-29T00:36:00;99645;;;19.94;67.76
57250;BME280;43102;52.014;-0.680;2023-07-29T00:37:00;99645;;;19.94;67.76
57250;BME280;43102;52.014;-0.680;2023-07-29T00:38:00;99645;;;19.94;67.76
57250;BME280;43102;52.014;-0.680;2023-07-29T00:39:00;99645;;;19.94;67.76
57250;BME280;43102;52.014;-0.680;2023-07-29T00:40:00;99638;;;19.90;68.13
57250;BME280;43102;52.014;-0.680;2023-07-29T00:41:00;99638;;;19.90;68.13
57250;BME280;43102;52.014;-0.680;2023-07-29T00:42:00;99638;;;19.90;68.13
57250;BME280;43102;52.014;-0.680;2023-07-29T00:43:00;99638;;;19.90;68.13
57250;BME280;43102;52.014;-0.680;2023-07-29T00:44:00;99638;;;19.90;68.13
57250;BME280;43102;52.014;-0.680;2023-07-29T00:45:00;99643;;;19.88;67.95
57250;BME280;43102;52.014;-0.680;2023-07-29T00:46:00;99643;;;19.88;67.95
57250;BME280;43102;52.014;-0.680;2023-07-29T00:47:00;99643;;;19.88;67.95
57250;BME280;43102;52.014;-0.680;2023-07-29T00:48:00;99643;;;19.88;67.95
57250;BME280;43102;52.014;-0.680;2023-07-29T00:49:00;99643;;;19.88;67.95
57250;BME280;43102;52.014;-0.680;2023-07-29T00:50:00;99639;;;19.86;67.89
57250;BME280;43102;52.014;-0.680;2023-07-29T00:51:00;99639;;;19.86;67.89
57250;BME280;43102;52.014;-0.680;2023-07-29T00:52:00;99639;;;19.86;67.89
57250;BME280;43102;52.014;-0.680;2023-07-29T00:53:00;99639;;;19.86;67.89
57250;BME280;43102;52.014;-0.680;2023-07-29T00:54:00;99639;;;19.86;67.89
57250;BME280;43102;52.014;-0.680;2023-07-29T00:55:00;99636;;;19.76;67.87
57250;BME280;43102;52.014;-0.680;2023-07-29T00:56:00;99636;;;19.76;67.87
57250;BME280;43102;52.014;-0.680;2023-07-29T00:57:00;99636;;;19.76;67.87
57250;BME280;43102;52.014;-0.680;2023-07-29T00:58:00;99636;;;19.76;67.87
57250;BME280;43102;52.014;-0.680;2023-07-29T00:59:00;99636;;;19.76;67.87
57250;BME280;43102;52.014;-0.680;2023-07-29T01:00:00;99637;;;19.75;67.68
57250;BME280;43102;52.014;-0.680;2023-07-29T01:01:00;99637;;;19.75;67.68
57250;BME280;43102;52.014;-0.680;2023-07-29T01:02:00;99637;;;19.75;67.68
57250;BME280;43102;52.014;-0.680;2023-07-29T01:03:00;99637;;;19.75;67.68
57250;BME280;43102;52.014;-0.680;2023-07-29T01:04:00;99637;;;19.75;67.68
57250;BME280;43102;52.014;-0.680;2023-07-29T01:05:00;99636;;;19.71;67.58
57250;BME280;43102;52.014;-0.680;2023-07-29T01:06:05;99636;;;19.71;67.58
57250;BME280;43102;52.014;-0.680;2023-07-29T01:07:03;99636;;;19.71;67.58
57250;BME280;43102;52.014;-0.680;2023-07-29T01:08:06;99636;;;19.71;67.58
57250;BME280;43102;52.014;-0.680;2023-07-29T01:09:02;99636;;;19.71;67.58
57250;BME280;43102;52.014;-0.680;2023-07-29T01:10:01;99637;;;19.65;67.93
57250;BME280;43102;52.014;-0.680;2023-07-29T01:12:03;99637;;;19.65;67.93
57250;BME280;43102;52.014;-0.680;2023-07-29T01:14:03;99637;;;19.65;67.93
57250;BME280;43102;52.014;-0.680;2023-07-29T01:15:04;99630;;;19.67;67.74
57250;BME280;43102;52.014;-0.680;2023-07-29T01:16:02;99630;;;19.67;67.74
57250;BME280;43102;52.014;-0.680;2023-07-29T01:17:00;99630;;;19.67;67.74
57250;BME280;43102;52.014;-0.680;2023-07-29T01:18:03;99630;;;19.67;67.74
57250;BME280;43102;52.014;-0.680;2023-07-29T01:19:01;99630;;;19.67;67.74
57250;BME280;43102;52.014;-0.680;2023-07-29T01:20:01;99637;;;19.62;68.13
57250;BME280;43102;52.014;-0.680;2023-07-29T01:21:03;99637;;;19.62;68.13
57250;BME280;43102;52.014;-0.680;2023-07-29T01:22:00;99637;;;19.62;68.13
57250;BME280;43102;52.014;-0.680;2023-07-29T01:23:00;99637;;;19.62;68.13
57250;BME280;43102;52.014;-0.680;2023-07-29T01:24:00;99637;;;19.62;68.13
57250;BME280;43102;52.014;-0.680;2023-07-29T01:25:00;99626;;;19.59;67.46
57250;BME280;43102;52.014;-0.680;2023-07-29T01:26:00;99626;;;19.59;67.46
57250;BME280;43102;52.014;-0.680;2023-07-29T01:27:00;99626;;;19.59;67.46
57250;BME280;43102;52.014;-0.680;2023-07-29T01:28:00;99626;;;19.59;67.46
57250;BME280;43102;52.014;-0.680;2023-07-29T01:29:00;99626;;;19.59;67.46
57250;BME280;43102;52.014;-0.680;2023-07-29T01:30:00;99627;;;19.51;67.58
57250;BME280;43102;52.014;-0.680;2023-07-29T01:32:01;99627;;;19.51;67.58
57250;BME280;43102;52.014;-0.680;2023-07-29T01:33:08;99627;;;19.51;67.58
57250;BME280;43102;52.014;-0.680;2023-07-29T01:34:04;99627;;;19.51;67.58
57250;BME280;43102;52.014;-0.680;2023-07-29T01:35:03;99615;;;19.47;67.40
57250;BME280;43102;52.014;-0.680;2023-07-29T01:36:01;99615;;;19.47;67.40
57250;BME280;43102;52.014;-0.680;2023-07-29T01:37:00;99615;;;19.47;67.40
57250;BME280;43102;52.014;-0.680;2023-07-29T01:38:03;99615;;;19.47;67.40
57250;BME280;43102;52.014;-0.680;2023-07-29T01:39:00;99615;;;19.47;67.40
57250;BME280;43102;52.014;-0.680;2023-07-29T01:40:00;99617;;;19.43;67.83
57250;BME280;43102;52.014;-0.680;2023-07-29T01:41:00;99617;;;19.43;67.83
57250;BME280;43102;52.014;-0.680;2023-07-29T01:42:00;99617;;;19.43;67.83
57250;BME280;43102;52.014;-0.680;2023-07-29T01:43:00;99617;;;19.43;67.83
57250;BME280;43102;52.014;-0.680;2023-07-29T01:44:00;99617;;;19.43;67.83
57250;BME280;43102;52.014;-0.680;2023-07-29T01:45:00;99613;;;19.41;67.96
57250;BME280;43102;52.014;-0.680;2023-07-29T01:46:00;99613;;;19.41;67.96
57250;BME280;43102;52.014;-0.680;2023-07-29T01:47:00;99613;;;19.41;67.96
57250;BME280;43102;52.014;-0.680;2023-07-29T01:48:00;99613;;;19.41;67.96
57250;BME280;43102;52.014;-0.680;2023-07-29T01:49:00;99613;;;19.41;67.96
57250;BME280;43102;52.014;-0.680;2023-07-29T01:50:00;99611;;;19.31;67.96
57250;BME280;43102;52.014;-0.680;2023-07-29T01:51:00;99611;;;19.31;67.96
57250;BME280;43102;52.014;-0.680;2023-07-29T01:52:00;99611;;;19.31;67.96
57250;BME280;43102;52.014;-0.680;2023-07-29T01:53:00;99611;;;19.31;67.96
57250;BME280;43102;52.014;-0.680;2023-07-29T01:54:00;99611;;;19.31;67.96
57250;BME280;43102;52.014;-0.680;2023-07-29T01:55:00;99607;;;19.33;67.32
57250;BME280;43102;52.014;-0.680;2023-07-29T01:56:01;99607;;;19.33;67.32
57250;BME280;43102;52.014;-0.680;2023-07-29T01:57:00;99607;;;19.33;67.32
57250;BME280;43102;52.014;-0.680;2023-07-29T01:58:00;99607;;;19.33;67.32
57250;BME280;43102;52.014;-0.680;2023-07-29T01:59:00;99607;;;19.33;67.32
57250;BME280;43102;52.014;-0.680;2023-07-29T02:00:00;99611;;;19.31;67.48
57250;BME280;43102;52.014;-0.680;2023-07-29T02:01:00;99611;;;19.31;67.48
57250;BME280;43102;52.014;-0.680;2023-07-29T02:02:00;99611;;;19.31;67.48
57250;BME280;43102;52.014;-0.680;2023-07-29T02:03:00;99611;;;19.31;67.48
57250;BME280;43102;52.014;-0.680;2023-07-29T02:04:00;99611;;;19.31;67.48
57250;BME280;43102;52.014;-0.680;2023-07-29T02:05:00;99607;;;19.28;67.80
57250;BME280;43102;52.014;-0.680;2023-07-29T02:06:00;99607;;;19.28;67.80
57250;BME280;43102;52.014;-0.680;2023-07-29T02:07:00;99607;;;19.28;67.80
57250;BME280;43102;52.014;-0.680;2023-07-29T02:08:00;99607;;;19.28;67.80
57250;BME280;43102;52.014;-0.680;2023-07-29T02:09:00;99607;;;19.28;67.80
57250;BME280;43102;52.014;-0.680;2023-07-29T02:10:00;99612;;;19.16;68.59
57250;BME280;43102;52.014;-0.680;2023-07-29T02:11:00;99612;;;19.16;68.59
57250;BME280;43102;52.014;-0.680;2023-07-29T02:12:00;99612;;;19.16;68.59
57250;BME280;43102;52.014;-0.680;2023-07-29T02:13:00;99612;;;19.16;68.59
57250;BME280;43102;52.014;-0.680;2023-07-29T02:14:00;99612;;;19.16;68.59
57250;BME280;43102;52.014;-0.680;2023-07-29T02:15:00;99598;;;19.21;68.02
57250;BME280;43102;52.014;-0.680;2023-07-29T02:16:00;99598;;;19.21;68.02
57250;BME280;43102;52.014;-0.680;2023-07-29T02:17:00;99598;;;19.21;68.02
57250;BME280;43102;52.014;-0.680;2023-07-29T02:18:00;99598;;;19.21;68.02
57250;BME280;43102;52.014;-0.680;2023-07-29T02:19:00;99598;;;19.21;68.02
57250;BME280;43102;52.014;-0.680;2023-07-29T02:20:00;99598;;;19.17;67.89
57250;BME280;43102;52.014;-0.680;2023-07-29T02:21:00;99598;;;19.17;67.89
57250;BME280;43102;52.014;-0.680;2023-07-29T02:22:00;99598;;;19.17;67.89
57250;BME280;43102;52.014;-0.680;2023-07-29T02:23:00;99598;;;19.17;67.89
57250;BME280;43102;52.014;-0.680;2023-07-29T02:24:00;99598;;;19.17;67.89
57250;BME280;43102;52.014;-0.680;2023-07-29T02:25:00;99606;;;19.08;67.91
57250;BME280;43102;52.014;-0.680;2023-07-29T02:26:00;99606;;;19.08;67.91
57250;BME280;43102;52.014;-0.680;2023-07-29T02:27:00;99606;;;19.08;67.91
57250;BME280;43102;52.014;-0.680;2023-07-29T02:28:00;99606;;;19.08;67.91
57250;BME280;43102;52.014;-0.680;2023-07-29T02:29:00;99606;;;19.08;67.91
57250;BME280;43102;52.014;-0.680;2023-07-29T02:30:00;99603;;;19.03;68.35
57250;BME280;43102;52.014;-0.680;2023-07-29T02:31:16;99603;;;19.03;68.35
57250;BME280;43102;52.014;-0.680;2023-07-29T02:32:00;99603;;;19.03;68.35
57250;BME280;43102;52.014;-0.680;2023-07-29T02:33:00;99603;;;19.03;68.35
57250;BME280;43102;52.014;-0.680;2023-07-29T02:34:00;99603;;;19.03;68.35
57250;BME280;43102;52.014;-0.680;2023-07-29T02:35:00;99593;;;19.09;68.03
57250;BME280;43102;52.014;-0.680;2023-07-29T02:36:00;99593;;;19.09;68.03
57250;BME280;43102;52.014;-0.680;2023-07-29T02:37:00;99593;;;19.09;68.03
57250;BME280;43102;52.014;-0.680;2023-07-29T02:38:00;99593;;;19.09;68.03
57250;BME280;43102;52.014;-0.680;2023-07-29T02:39:00;99593;;;19.09;68.03
57250;BME280;43102;52.014;-0.680;2023-07-29T02:40:00;99587;;;19.04;68.82
57250;BME280;43102;52.014;-0.680;2023-07-29T02:41:00;99587;;;19.04;68.82
57250;BME280;43102;52.014;-0.680;2023-07-29T02:42:00;99587;;;19.04;68.82
57250;BME280;43102;52.014;-0.680;2023-07-29T02:43:00;99587;;;19.04;68.82
57250;BME280;43102;52.014;-0.680;2023-07-29T02:44:01;99587;;;19.04;68.82
57250;BME280;43102;52.014;-0.680;2023-07-29T02:45:00;99585;;;19.04;68.24
57250;BME280;43102;52.014;-0.680;2023-07-29T02:46:00;99585;;;19.04;68.24
57250;BME280;43102;52.014;-0.680;2023-07-29T02:47:00;99585;;;19.04;68.24
57250;BME280;43102;52.014;-0.680;2023-07-29T02:48:00;99585;;;19.04;68.24
57250;BME280;43102;52.014;-0.680;2023-07-29T02:49:01;99585;;;19.04;68.24
57250;BME280;43102;52.014;-0.680;2023-07-29T02:50:00;99600;;;19.03;68.12
57250;BME280;43102;52.014;-0.680;2023-07-29T02:51:00;99600;;;19.03;68.12
57250;BME280;43102;52.014;-0.680;2023-07-29T02:52:00;99600;;;19.03;68.12
57250;BME280;43102;52.014;-0.680;2023-07-29T02:53:00;99600;;;19.03;68.12
57250;BME280;43102;52.014;-0.680;2023-07-29T02:54:00;99600;;;19.03;68.12
57250;BME280;43102;52.014;-0.680;2023-07-29T02:55:00;99595;;;19.02;68.15
57250;BME280;43102;52.014;-0.680;2023-07-29T02:56:00;99595;;;19.02;68.15
57250;BME280;43102;52.014;-0.680;2023-07-29T02:57:00;99595;;;19.02;68.15
57250;BME280;43102;52.014;-0.680;2023-07-29T02:58:00;99595;;;19.02;68.15
57250;BME280;43102;52.014;-0.680;2023-07-29T02:59:00;99595;;;19.02;68.15
57250;BME280;43102;52.014;-0.680;2023-07-29T03:00:00;99595;;;19.01;68.25
57250;BME280;43102;52.014;-0.680;2023-07-29T03:01:00;99595;;;19.01;68.25
57250;BME280;43102;52.014;-0.680;2023-07-29T03:02:00;99595;;;19.01;68.25
57250;BME280;43102;52.014;-0.680;2023-07-29T03:03:00;99595;;;19.01;68.25
57250;BME280;43102;52.014;-0.680;2023-07-29T03:04:00;99595;;;19.01;68.25
57250;BME280;43102;52.014;-0.680;2023-07-29T03:05:00;99601;;;18.96;68.64
57250;BME280;43102;52.014;-0.680;2023-07-29T03:06:01;99601;;;18.96;68.64
57250;BME280;43102;52.014;-0.680;2023-07-29T03:07:00;99601;;;18.96;68.64
57250;BME280;43102;52.014;-0.680;2023-07-29T03:08:00;99601;;;18.96;68.64
57250;BME280;43102;52.014;-0.680;2023-07-29T03:09:00;99601;;;18.96;68.64
57250;BME280;43102;52.014;-0.680;2023-07-29T03:10:00;99590;;;18.95;68.90
57250;BME280;43102;52.014;-0.680;2023-07-29T03:11:08;99590;;;18.95;68.90
57250;BME280;43102;52.014;-0.680;2023-07-29T03:12:00;99590;;;18.95;68.90
57250;BME280;43102;52.014;-0.680;2023-07-29T03:13:00;99590;;;18.95;68.90
57250;BME280;43102;52.014;-0.680;2023-07-29T03:14:00;99590;;;18.95;68.90
57250;BME280;43102;52.014;-0.680;2023-07-29T03:15:00;99586;;;18.95;68.78
57250;BME280;43102;52.014;-0.680;2023-07-29T03:16:08;99586;;;18.95;68.78
57250;BME280;43102;52.014;-0.680;2023-07-29T03:17:02;99586;;;18.95;68.78
57250;BME280;43102;52.014;-0.680;2023-07-29T03:18:00;99586;;;18.95;68.78
57250;BME280;43102;52.014;-0.680;2023-07-29T03:19:00;99586;;;18.95;68.78
57250;BME280;43102;52.014;-0.680;2023-07-29T03:20:00;99587;;;18.91;68.59
57250;BME280;43102;52.014;-0.680;2023-07-29T03:21:00;99587;;;18.91;68.59
57250;BME280;43102;52.014;-0.680;2023-07-29T03:22:00;99587;;;18.91;68.59
57250;BME280;43102;52.014;-0.680;2023-07-29T03:23:00;99587;;;18.91;68.59
57250;BME280;43102;52.014;-0.680;2023-07-29T03:24:00;99587;;;18.91;68.59
57250;BME280;43102;52.014;-0.680;2023-07-29T03:25:00;99585;;;18.90;68.75
57250;BME280;43102;52.014;-0.680;2023-07-29T03:26:01;99585;;;18.90;68.75
57250;BME280;43102;52.014;-0.680;2023-07-29T03:27:00;99585;;;18.90;68.75
57250;BME280;43102;52.014;-0.680;2023-07-29T03:28:00;99585;;;18.90;68.75
57250;BME280;43102;52.014;-0.680;2023-07-29T03:29:00;99585;;;18.90;68.75
57250;BME280;43102;52.014;-0.680;2023-07-29T03:30:00;99585;;;18.88;68.60
57250;BME280;43102;52.014;-0.680;2023-07-29T03:31:00;99585;;;18.88;68.60
57250;BME280;43102;52.014;-0.680;2023-07-29T03:32:00;99585;;;18.88;68.60
57250;BME280;43102;52.014;-0.680;2023-07-29T03:33:00;99585;;;18.88;68.60
57250;BME280;43102;52.014;-0.680;2023-07-29T03:34:00;99585;;;18.88;68.60
57250;BME280;43102;52.014;-0.680;2023-07-29T03:35:00;99588;;;18.90;68.78
57250;BME280;43102;52.014;-0.680;2023-07-29T03:36:00;99588;;;18.90;68.78
57250;BME280;43102;52.014;-0.680;2023-07-29T03:37:00;99588;;;18.90;68.78
57250;BME280;43102;52.014;-0.680;2023-07-29T03:38:00;99588;;;18.90;68.78
57250;BME280;43102;52.014;-0.680;2023-07-29T03:39:00;99588;;;18.90;68.78
57250;BME280;43102;52.014;-0.680;2023-07-29T03:40:00;99593;;;18.87;69.13
57250;BME280;43102;52.014;-0.680;2023-07-29T03:41:00;99593;;;18.87;69.13
57250;BME280;43102;52.014;-0.680;2023-07-29T03:42:00;99593;;;18.87;69.13
57250;BME280;43102;52.014;-0.680;2023-07-29T03:43:00;99593;;;18.87;69.13
57250;BME280;43102;52.014;-0.680;2023-07-29T03:44:00;99593;;;18.87;69.13
57250;BME280;43102;52.014;-0.680;2023-07-29T03:45:00;99585;;;18.83;68.88
57250;BME280;43102;52.014;-0.680;2023-07-29T03:46:00;99585;;;18.83;68.88
57250;BME280;43102;52.014;-0.680;2023-07-29T03:47:00;99585;;;18.83;68.88
57250;BME280;43102;52.014;-0.680;2023-07-29T03:48:00;99585;;;18.83;68.88
57250;BME280;43102;52.014;-0.680;2023-07-29T03:49:00;99585;;;18.83;68.88
57250;BME280;43102;52.014;-0.680;2023-07-29T03:50:00;99586;;;18.82;68.67
57250;BME280;43102;52.014;-0.680;2023-07-29T03:51:00;99586;;;18.82;68.67
57250;BME280;43102;52.014;-0.680;2023-07-29T03:52:00;99586;;;18.82;68.67
57250;BME280;43102;52.014;-0.680;2023-07-29T03:53:00;99586;;;18.82;68.67
57250;BME280;43102;52.014;-0.680;2023-07-29T03:54:00;99586;;;18.82;68.67
57250;BME280;43102;52.014;-0.680;2023-07-29T03:55:00;99587;;;18.80;68.52
57250;BME280;43102;52.014;-0.680;2023-07-29T03:56:00;99587;;;18.80;68.52
57250;BME280;43102;52.014;-0.680;2023-07-29T03:57:00;99587;;;18.80;68.52
57250;BME280;43102;52.014;-0.680;2023-07-29T03:58:00;99587;;;18.80;68.52
57250;BME280;43102;52.014;-0.680;2023-07-29T03:59:04;99587;;;18.80;68.52
57250;BME280;43102;52.014;-0.680;2023-07-29T04:00:00;99586;;;18.72;68.55
57250;BME280;43102;52.014;-0.680;2023-07-29T04:01:00;99586;;;18.72;68.55
57250;BME280;43102;52.014;-0.680;2023-07-29T04:02:00;99586;;;18.72;68.55
57250;BME280;43102;52.014;-0.680;2023-07-29T04:03:00;99586;;;18.72;68.55
57250;BME280;43102;52.014;-0.680;2023-07-29T04:04:00;99586;;;18.72;68.55
57250;BME280;43102;52.014;-0.680;2023-07-29T04:05:00;99589;;;18.71;68.65
57250;BME280;43102;52.014;-0.680;2023-07-29T04:06:00;99589;;;18.71;68.65
57250;BME280;43102;52.014;-0.680;2023-07-29T04:07:00;99589;;;18.71;68.65
57250;BME280;43102;52.014;-0.680;2023-07-29T04:08:00;99589;;;18.71;68.65
57250;BME280;43102;52.014;-0.680;2023-07-29T04:09:00;99589;;;18.71;68.65
57250;BME280;43102;52.014;-0.680;2023-07-29T04:10:00;99596;;;18.65;69.64
57250;BME280;43102;52.014;-0.680;2023-07-29T04:11:00;99596;;;18.65;69.64
57250;BME280;43102;52.014;-0.680;2023-07-29T04:12:00;99596;;;18.65;69.64
57250;BME280;43102;52.014;-0.680;2023-07-29T04:13:00;99596;;;18.65;69.64
57250;BME280;43102;52.014;-0.680;2023-07-29T04:14:00;99596;;;18.65;69.64
57250;BME280;43102;52.014;-0.680;2023-07-29T04:15:00;99596;;;18.65;68.98
57250;BME280;43102;52.014;-0.680;2023-07-29T04:16:00;99596;;;18.65;68.98
57250;BME280;43102;52.014;-0.680;2023-07-29T04:17:00;99596;;;18.65;68.98
57250;BME280;43102;52.014;-0.680;2023-07-29T04:18:00;99596;;;18.65;68.98
57250;BME280;43102;52.014;-0.680;2023-07-29T04:19:00;99596;;;18.65;68.98
57250;BME280;43102;52.014;-0.680;2023-07-29T04:20:00;99599;;;18.63;69.59
57250;BME280;43102;52.014;-0.680;2023-07-29T04:21:00;99599;;;18.63;69.59
57250;BME280;43102;52.014;-0.680;2023-07-29T04:22:00;99599;;;18.63;69.59
57250;BME280;43102;52.014;-0.680;2023-07-29T04:23:00;99599;;;18.63;69.59
57250;BME280;43102;52.014;-0.680;2023-07-29T04:24:00;99599;;;18.63;69.59
57250;BME280;43102;52.014;-0.680;2023-07-29T04:25:00;99595;;;18.64;69.35
57250;BME280;43102;52.014;-0.680;2023-07-29T04:26:00;99595;;;18.64;69.35
57250;BME280;43102;52.014;-0.680;2023-07-29T04:27:00;99595;;;18.64;69.35
57250;BME280;43102;52.014;-0.680;2023-07-29T04:28:00;99595;;;18.64;69.35
57250;BME280;43102;52.014;-0.680;2023-07-29T04:29:00;99595;;;18.64;69.35
57250;BME280;43102;52.014;-0.680;2023-07-29T04:30:00;99601;;;18.62;69.29
57250;BME280;43102;52.014;-0.680;2023-07-29T04:31:00;99601;;;18.62;69.29
57250;BME280;43102;52.014;-0.680;2023-07-29T04:32:00;99601;;;18.62;69.29
57250;BME280;43102;52.014;-0.680;2023-07-29T04:33:00;99601;;;18.62;69.29
57250;BME280;43102;52.014;-0.680;2023-07-29T04:34:00;99601;;;18.62;69.29
57250;BME280;43102;52.014;-0.680;2023-07-29T04:35:00;99603;;;18.61;69.37
57250;BME280;43102;52.014;-0.680;2023-07-29T04:36:00;99603;;;18.61;69.37
57250;BME280;43102;52.014;-0.680;2023-07-29T04:37:00;99603;;;18.61;69.37
57250;BME280;43102;52.014;-0.680;2023-07-29T04:38:00;99603;;;18.61;69.37
57250;BME280;43102;52.014;-0.680;2023-07-29T04:39:00;99603;;;18.61;69.37
57250;BME280;43102;52.014;-0.680;2023-07-29T04:40:00;99603;;;18.58;69.77
57250;BME280;43102;52.014;-0.680;2023-07-29T04:41:00;99603;;;18.58;69.77
57250;BME280;43102;52.014;-0.680;2023-07-29T04:42:00;99603;;;18.58;69.77
57250;BME280;43102;52.014;-0.680;2023-07-29T04:43:00;99603;;;18.58;69.77
57250;BME280;43102;52.014;-0.680;2023-07-29T04:44:00;99603;;;18.58;69.77
57250;BME280;43102;52.014;-0.680;2023-07-29T04:45:00;99597;;;18.60;69.55
57250;BME280;43102;52.014;-0.680;2023-07-29T04:46:00;99597;;;18.60;69.55
57250;BME280;43102;52.014;-0.680;2023-07-29T04:47:00;99597;;;18.60;69.55
57250;BME280;43102;52.014;-0.680;2023-07-29T04:48:00;99597;;;18.60;69.55
57250;BME280;43102;52.014;-0.680;2023-07-29T04:49:00;99597;;;18.60;69.55
57250;BME280;43102;52.014;-0.680;2023-07-29T04:50:00;99603;;;18.57;69.69
57250;BME280;43102;52.014;-0.680;2023-07-29T04:51:00;99603;;;18.57;69.69
57250;BME280;43102;52.014;-0.680;2023-07-29T04:52:00;99603;;;18.57;69.69
57250;BME280;43102;52.014;-0.680;2023-07-29T04:53:00;99603;;;18.57;69.69
57250;BME280;43102;52.014;-0.680;2023-07-29T04:54:00;99603;;;18.57;69.69
57250;BME280;43102;52.014;-0.680;2023-07-29T04:55:00;99591;;;18.58;69.61
57250;BME280;43102;52.014;-0.680;2023-07-29T04:56:00;99591;;;18.58;69.61
57250;BME280;43102;52.014;-0.680;2023-07-29T04:57:00;99591;;;18.58;69.61
57250;BME280;43102;52.014;-0.680;2023-07-29T04:58:00;99591;;;18.58;69.61
57250;BME280;43102;52.014;-0.680;2023-07-29T04:59:00;99591;;;18.58;69.61
57250;BME280;43102;52.014;-0.680;2023-07-29T05:00:00;99591;;;18.58;69.31
57250;BME280;43102;52.014;-0.680;2023-07-29T05:01:01;99591;;;18.58;69.31
57250;BME280;43102;52.014;-0.680;2023-07-29T05:02:00;99591;;;18.58;69.31
57250;BME280;43102;52.014;-0.680;2023-07-29T05:03:00;99591;;;18.58;69.31
57250;BME280;43102;52.014;-0.680;2023-07-29T05:04:00;99591;;;18.58;69.31
57250;BME280;43102;52.014;-0.680;2023-07-29T05:05:00;99595;;;18.52;69.58
57250;BME280;43102;52.014;-0.680;2023-07-29T05:06:00;99595;;;18.52;69.58
57250;BME280;43102;52.014;-0.680;2023-07-29T05:07:00;99595;;;18.52;69.58
57250;BME280;43102;52.014;-0.680;2023-07-29T05:08:00;99595;;;18.52;69.58
57250;BME280;43102;52.014;-0.680;2023-07-29T05:09:12;99595;;;18.52;69.58
57250;BME280;43102;52.014;-0.680;2023-07-29T05:10:00;99596;;;18.55;69.81
57250;BME280;43102;52.014;-0.680;2023-07-29T05:11:00;99596;;;18.55;69.81
57250;BME280;43102;52.014;-0.680;2023-07-29T05:12:00;99596;;;18.55;69.81
57250;BME280;43102;52.014;-0.680;2023-07-29T05:13:00;99596;;;18.55;69.81
57250;BME280;43102;52.014;-0.680;2023-07-29T05:14:00;99596;;;18.55;69.81
57250;BME280;43102;52.014;-0.680;2023-07-29T05:15:00;99602;;;18.56;69.53
57250;BME280;43102;52.014;-0.680;2023-07-29T05:16:00;99602;;;18.56;69.53
57250;BME280;43102;52.014;-0.680;2023-07-29T05:17:00;99602;;;18.56;69.53
57250;BME280;43102;52.014;-0.680;2023-07-29T05:18:00;99602;;;18.56;69.53
57250;BME280;43102;52.014;-0.680;2023-07-29T05:19:00;99602;;;18.56;69.53
57250;BME280;43102;52.014;-0.680;2023-07-29T05:20:00;99605;;;18.52;69.69
57250;BME280;43102;52.014;-0.680;2023-07-29T05:21:00;99605;;;18.52;69.69
57250;BME280;43102;52.014;-0.680;2023-07-29T05:22:00;99605;;;18.52;69.69
57250;BME280;43102;52.014;-0.680;2023-07-29T05:23:00;99605;;;18.52;69.69
57250;BME280;43102;52.014;-0.680;2023-07-29T05:24:00;99605;;;18.52;69.69
57250;BME280;43102;52.014;-0.680;2023-07-29T05:25:00;99611;;;18.54;69.02
57250;BME280;43102;52.014;-0.680;2023-07-29T05:26:00;99611;;;18.54;69.02
57250;BME280;43102;52.014;-0.680;2023-07-29T05:27:00;99611;;;18.54;69.02
57250;BME280;43102;52.014;-0.680;2023-07-29T05:28:00;99611;;;18.54;69.02
57250;BME280;43102;52.014;-0.680;2023-07-29T05:29:00;99611;;;18.54;69.02